createdAt,value
2023-02-15T00:00:03.206Z,1.20
2023-02-15T00:02:42.482Z,1.20
2023-02-15T00:05:17.152Z,1.10
2023-02-15T00:07:54.415Z,1.10
2023-02-15T00:10:29.753Z,1.00
2023-02-15T00:13:05.051Z,1.10
2023-02-15T00:15:39.561Z,1.10
2023-02-15T00:18:14.318Z,1.10
2023-02-15T00:20:48.307Z,1.10
2023-02-15T00:23:24.986Z,1.10
2023-02-15T00:26:08.617Z,1.00
2023-02-15T00:28:43.350Z,1.00
2023-02-15T00:31:17.392Z,1.10
2023-02-15T00:33:52.125Z,1.00
2023-02-15T00:36:27.089Z,1.00
2023-02-15T00:39:03.898Z,1.00
2023-02-15T00:41:38.327Z,0.90
2023-02-15T00:44:12.145Z,0.80
2023-02-15T00:46:49.062Z,0.80
2023-02-15T00:49:22.314Z,0.80
2023-02-15T00:51:56.131Z,0.70
2023-02-15T00:54:32.838Z,0.70
2023-02-15T00:57:07.150Z,0.70
2023-02-15T00:59:41.147Z,0.70
2023-02-15T01:02:15.119Z,0.60
2023-02-15T01:04:49.170Z,0.60
2023-02-15T01:07:24.237Z,0.60
2023-02-15T01:10:00.760Z,0.60
2023-02-15T01:12:35.105Z,0.50
2023-02-15T01:15:09.580Z,0.60
2023-02-15T01:17:46.802Z,0.50
2023-02-15T01:20:20.809Z,0.50
2023-02-15T01:22:55.693Z,0.50
2023-02-15T01:25:33.010Z,0.40
2023-02-15T01:28:07.831Z,0.30
2023-02-15T01:30:42.439Z,0.40
2023-02-15T01:33:19.147Z,0.40
2023-02-15T01:35:57.293Z,0.40
2023-02-15T01:38:31.378Z,0.30
2023-02-15T01:41:21.372Z,0.30
2023-02-15T01:43:57.282Z,0.20
2023-02-15T01:46:34.980Z,0.20
2023-02-15T01:49:12.941Z,0.20
2023-02-15T01:51:48.287Z,0.20
2023-02-15T01:54:25.961Z,0.10
2023-02-15T01:57:04.726Z,0.10
2023-02-15T01:59:39.437Z,0.10
2023-02-15T02:02:14.237Z,0.10
2023-02-15T02:04:50.200Z,0.10
2023-02-15T02:07:27.572Z,0.10
2023-02-15T02:10:02.120Z,0.10
2023-02-15T02:12:39.920Z,0.00
2023-02-15T02:15:16.214Z,0.00
2023-02-15T02:18:03.531Z,0.00
2023-02-15T02:20:55.280Z,0.00
2023-02-15T02:23:32.092Z,-0.10
2023-02-15T02:26:26.897Z,-0.10
2023-02-15T02:29:30.820Z,-0.10
2023-02-15T02:32:04.453Z,-0.20
2023-02-15T02:34:43.070Z,-0.20
2023-02-15T02:37:20.598Z,-0.30
2023-02-15T02:39:51.237Z,-0.30
2023-02-15T02:42:27.587Z,-0.30
2023-02-15T02:45:04.169Z,-0.40
2023-02-15T02:47:40.133Z,-0.40
2023-02-15T02:50:17.675Z,-0.40
2023-02-15T02:52:52.534Z,-0.40
2023-02-15T02:55:28.587Z,-0.40
2023-02-15T02:58:07.449Z,-0.40
2023-02-15T03:00:44.361Z,-0.50
2023-02-15T03:03:23.460Z,-0.40
2023-02-15T03:06:03.365Z,-0.40
2023-02-15T03:08:43.396Z,-0.50
2023-02-15T03:11:18.853Z,-0.40
2023-02-15T03:14:12.194Z,-0.50
2023-02-15T03:35:13.543Z,-0.50
2023-02-15T03:59:00.162Z,-0.60
2023-02-15T04:05:21.175Z,-0.60
2023-02-15T07:02:41.656Z,-0.70
2023-02-15T07:05:17.512Z,-0.70
2023-02-15T07:07:52.434Z,-0.50
2023-02-15T07:10:27.226Z,-0.10
2023-02-15T07:12:58.509Z,0.40
2023-02-15T07:15:35.886Z,0.80
2023-02-15T07:18:13.072Z,1.20
2023-02-15T07:20:47.199Z,1.70
2023-02-15T07:23:21.231Z,2.10
2023-02-15T07:26:01.294Z,2.50
2023-02-15T07:28:36.701Z,2.90
2023-02-15T07:31:11.199Z,3.40
2023-02-15T07:33:47.832Z,3.90
2023-02-15T07:36:22.221Z,4.40
2023-02-15T07:38:56.090Z,4.80
2023-02-15T07:41:30.072Z,5.20
2023-02-15T07:44:04.146Z,5.50
2023-02-15T07:46:37.363Z,5.80
2023-02-15T07:49:13.751Z,6.00
2023-02-15T07:51:48.174Z,6.30
2023-02-15T07:54:22.275Z,6.50
2023-02-15T07:56:56.123Z,6.50
2023-02-15T07:59:30.169Z,6.50
2023-02-15T08:02:04.077Z,6.40
2023-02-15T08:04:40.770Z,6.40
2023-02-15T08:07:15.459Z,6.30
2023-02-15T08:09:50.091Z,6.10
2023-02-15T08:12:24.263Z,6.00
2023-02-15T08:14:58.427Z,5.90
2023-02-15T08:17:32.151Z,5.80
2023-02-15T08:20:09.962Z,5.90
2023-02-15T08:22:44.500Z,5.90
2023-02-15T08:25:22.063Z,5.90
2023-02-15T08:27:56.228Z,5.80
2023-02-15T08:30:30.147Z,5.80
2023-02-15T08:33:04.685Z,5.80
2023-02-15T08:35:41.690Z,6.10
2023-02-15T08:38:16.611Z,6.10
2023-02-15T08:40:51.148Z,6.20
2023-02-15T08:43:25.180Z,6.30
2023-02-15T08:45:59.237Z,6.30
2023-02-15T08:48:33.365Z,6.20
2023-02-15T08:51:14.866Z,6.10
2023-02-15T08:53:50.129Z,6.20
2023-02-15T08:56:25.608Z,6.40
2023-02-15T08:59:00.251Z,6.40
2023-02-15T09:01:35.442Z,6.30
2023-02-15T09:04:11.652Z,6.30
2023-02-15T09:06:49.329Z,6.30
2023-02-15T09:09:23.314Z,6.30
2023-02-15T09:11:59.547Z,6.20
2023-02-15T09:14:34.224Z,6.30
2023-02-15T09:17:08.105Z,6.30
2023-02-15T09:19:42.101Z,6.30
2023-02-15T09:22:18.686Z,6.60
2023-02-15T09:24:53.105Z,6.60
2023-02-15T09:27:27.104Z,6.70
2023-02-15T09:30:01.159Z,6.80
2023-02-15T09:32:35.123Z,6.90
2023-02-15T09:35:09.781Z,7.20
2023-02-15T09:37:46.878Z,7.30
2023-02-15T09:40:21.102Z,7.50
2023-02-15T09:43:13.618Z,7.70
2023-02-15T09:46:11.596Z,7.80
2023-02-15T09:48:46.410Z,7.80
2023-02-15T09:51:38.775Z,7.80
2023-02-15T09:54:28.499Z,8.00
2023-02-15T09:57:04.185Z,8.10
2023-02-15T09:59:41.350Z,8.10
2023-02-15T10:02:24.352Z,8.00
2023-02-15T10:04:58.352Z,7.90
2023-02-15T10:07:41.500Z,7.90
2023-02-15T10:10:23.334Z,7.90
2023-02-15T10:13:02.626Z,8.00
2023-02-15T10:15:53.270Z,8.00
2023-02-15T10:18:46.316Z,8.00
2023-02-15T10:21:26.115Z,8.20
2023-02-15T10:24:19.266Z,8.30
2023-02-15T10:26:55.763Z,8.40
2023-02-15T10:29:33.568Z,8.50
2023-02-15T10:32:13.915Z,8.40
2023-02-15T10:34:51.911Z,8.40
2023-02-15T10:37:43.729Z,8.60
2023-02-15T10:40:22.758Z,8.70
2023-02-15T10:43:18.355Z,8.70
2023-02-15T10:45:57.940Z,8.70
2023-02-15T10:48:54.737Z,8.60
2023-02-15T10:51:33.342Z,8.50
2023-02-15T10:54:13.493Z,8.50
2023-02-15T10:56:51.176Z,8.50
2023-02-15T10:59:54.593Z,8.40
2023-02-15T11:02:28.434Z,8.40
2023-02-15T11:05:07.428Z,8.50
2023-02-15T11:07:43.495Z,8.50
2023-02-15T11:10:19.891Z,8.40
2023-02-15T11:12:55.699Z,8.30
2023-02-15T11:15:35.638Z,8.30
2023-02-15T11:18:13.685Z,8.20
2023-02-15T11:20:52.066Z,8.20
2023-02-15T11:23:26.148Z,8.20
2023-02-15T11:26:01.857Z,8.10
2023-02-15T11:28:38.358Z,8.00
2023-02-15T11:31:19.935Z,8.00
2023-02-15T11:33:55.597Z,8.00
2023-02-15T11:36:31.663Z,7.90
2023-02-15T11:39:06.974Z,7.90
2023-02-15T11:41:43.239Z,7.90
2023-02-15T11:44:19.929Z,7.90
2023-02-15T11:46:56.889Z,7.70
2023-02-15T11:49:33.295Z,7.70
2023-02-15T11:52:06.185Z,7.70
2023-02-15T11:54:41.544Z,7.70
2023-02-15T11:57:19.250Z,7.80
2023-02-15T11:59:55.338Z,7.80
2023-02-15T12:02:31.837Z,7.90
2023-02-15T12:05:05.344Z,7.80
2023-02-15T12:07:40.567Z,7.80
2023-02-15T12:10:21.693Z,7.70
2023-02-15T12:13:13.039Z,7.70
2023-02-15T12:15:49.228Z,7.60
2023-02-15T12:18:38.826Z,7.60
2023-02-15T12:21:14.809Z,7.50
2023-02-15T12:23:51.105Z,7.60
2023-02-15T12:26:29.080Z,7.60
2023-02-15T12:29:04.142Z,7.60
2023-02-15T12:31:40.919Z,7.60
2023-02-15T12:34:23.382Z,7.50
2023-02-15T12:36:59.238Z,7.50
2023-02-15T12:39:33.795Z,7.60
2023-02-15T12:42:09.326Z,7.50
2023-02-15T12:44:43.091Z,7.50
2023-02-15T12:47:28.848Z,7.40
2023-02-15T12:50:02.371Z,7.50
2023-02-15T12:52:38.810Z,7.50
2023-02-15T12:55:23.964Z,7.50
2023-02-15T12:58:11.243Z,7.50
2023-02-15T13:00:45.185Z,7.40
2023-02-15T13:03:21.958Z,7.40
2023-02-15T13:05:57.033Z,7.40
2023-02-15T13:08:35.656Z,7.50
2023-02-15T13:11:11.409Z,7.50
2023-02-15T13:13:54.336Z,7.50
2023-02-15T13:16:32.865Z,7.50
2023-02-15T13:19:08.298Z,7.50
2023-02-15T13:21:43.512Z,7.50
2023-02-15T13:24:23.199Z,7.50
2023-02-15T13:27:14.088Z,7.50
2023-02-15T13:29:50.613Z,7.50
2023-02-15T13:32:32.860Z,7.50
2023-02-15T13:35:08.391Z,7.50
2023-02-15T13:38:02.371Z,7.50
2023-02-15T13:40:36.505Z,7.50
2023-02-15T13:43:20.205Z,7.60
2023-02-15T13:46:05.376Z,7.60
2023-02-15T13:48:50.779Z,7.70
2023-02-15T13:51:26.398Z,7.70
2023-02-15T13:54:10.799Z,7.70
2023-02-15T13:56:52.229Z,7.80
2023-02-15T13:59:48.130Z,7.70
2023-02-15T14:02:40.996Z,7.70
2023-02-15T14:05:32.883Z,7.80
2023-02-15T14:08:12.641Z,7.80
2023-02-15T14:10:50.000Z,7.90
2023-02-15T14:13:52.206Z,7.90
2023-02-15T14:16:35.003Z,7.90
2023-02-15T14:19:08.414Z,7.90
2023-02-15T14:21:46.650Z,7.90
2023-02-15T14:24:27.377Z,7.90
2023-02-15T14:27:08.402Z,7.90
2023-02-15T14:29:49.456Z,7.90
2023-02-15T14:32:30.910Z,7.90
2023-02-15T14:35:05.597Z,7.90
2023-02-15T14:37:44.056Z,7.90
2023-02-15T14:40:35.633Z,7.90
2023-02-15T14:43:12.111Z,7.90
2023-02-15T14:46:00.438Z,7.90
2023-02-15T14:48:40.663Z,7.90
2023-02-15T14:51:16.129Z,7.90
2023-02-15T14:53:50.177Z,7.90
2023-02-15T14:56:29.809Z,7.90
2023-02-15T14:59:23.071Z,7.80
2023-02-15T15:01:53.482Z,7.80
2023-02-15T15:04:32.662Z,7.80
2023-02-15T15:07:12.684Z,7.80
2023-02-15T15:09:46.380Z,7.80
2023-02-15T15:12:41.941Z,7.70
2023-02-15T15:15:18.529Z,7.70
2023-02-15T15:18:00.422Z,7.70
2023-02-15T15:21:07.125Z,7.70
2023-02-15T15:23:49.884Z,7.70
2023-02-15T15:26:34.413Z,7.60
2023-02-15T15:29:08.248Z,7.60
2023-02-15T15:31:45.791Z,7.50
2023-02-15T15:35:02.177Z,7.60
2023-02-15T15:37:58.783Z,7.50
2023-02-15T15:40:46.255Z,7.40
2023-02-15T15:43:59.036Z,7.40
2023-02-15T15:46:54.849Z,7.40
2023-02-15T15:49:31.958Z,7.30
2023-02-15T15:52:06.594Z,7.20
2023-02-15T15:54:43.924Z,7.20
2023-02-15T15:57:19.821Z,7.10
2023-02-15T15:59:54.801Z,7.10
2023-02-15T16:02:29.169Z,7.10
2023-02-15T16:05:11.006Z,7.00
2023-02-15T16:07:45.451Z,7.00
2023-02-15T16:10:27.534Z,6.90
2023-02-15T16:13:02.170Z,6.90
2023-02-15T16:15:39.349Z,6.80
2023-02-15T16:18:15.978Z,6.80
2023-02-15T16:20:54.290Z,6.70
2023-02-15T16:23:49.771Z,6.70
2023-02-15T16:26:36.371Z,6.60
2023-02-15T16:29:16.889Z,6.50
2023-02-15T16:32:03.495Z,6.50
2023-02-15T16:34:37.269Z,6.40
2023-02-15T16:37:18.524Z,6.40
2023-02-15T16:39:52.176Z,6.30
2023-02-15T16:42:31.270Z,6.30
2023-02-15T16:45:06.970Z,6.20
2023-02-15T16:47:43.803Z,6.20
2023-02-15T16:50:21.774Z,6.10
2023-02-15T16:52:56.198Z,6.10
2023-02-15T16:55:26.611Z,6.00
2023-02-15T16:58:05.725Z,6.00
2023-02-15T17:00:42.556Z,5.90
2023-02-15T17:03:25.487Z,5.90
2023-02-15T17:05:59.882Z,5.80
2023-02-15T17:08:35.094Z,5.80
2023-02-15T17:11:18.339Z,5.80
2023-02-15T17:14:25.880Z,5.70
2023-02-15T17:17:02.879Z,5.70
2023-02-15T17:19:44.502Z,5.60
2023-02-15T17:22:22.251Z,5.60
2023-02-15T17:25:02.106Z,5.50
2023-02-15T17:27:36.397Z,5.50
2023-02-15T17:30:18.279Z,5.40
2023-02-15T17:32:57.185Z,5.30
2023-02-15T17:35:31.618Z,5.20
2023-02-15T17:38:08.322Z,5.20
2023-02-15T17:40:42.759Z,5.10
2023-02-15T17:43:20.266Z,5.00
2023-02-15T17:45:57.336Z,4.90
2023-02-15T17:48:35.198Z,4.80
2023-02-15T17:51:11.775Z,4.80
2023-02-15T17:54:09.544Z,4.70
2023-02-15T17:56:41.732Z,4.70
2023-02-15T17:59:16.924Z,4.60
2023-02-15T18:02:06.404Z,4.60
2023-02-15T18:04:53.108Z,4.50
2023-02-15T18:07:39.660Z,4.50
2023-02-15T18:10:28.476Z,4.40
2023-02-15T18:13:02.521Z,4.40
2023-02-15T18:15:37.899Z,4.30
2023-02-15T18:18:16.644Z,4.30
2023-02-15T18:20:51.512Z,4.30
2023-02-15T18:23:25.383Z,4.20
2023-02-15T18:26:00.641Z,4.20
2023-02-15T18:28:33.203Z,4.20
2023-02-15T18:31:08.192Z,4.10
2023-02-15T18:33:47.632Z,4.10
2023-02-15T18:36:24.537Z,4.00
2023-02-15T18:38:59.452Z,4.00
2023-02-15T18:41:33.240Z,4.00
2023-02-15T18:44:11.344Z,3.90
2023-02-15T18:46:45.452Z,3.90
2023-02-15T18:49:22.084Z,3.90
2023-02-15T18:51:56.941Z,3.90
2023-02-15T18:54:31.665Z,3.80
2023-02-15T18:57:06.537Z,3.80
2023-02-15T18:59:41.381Z,3.80
2023-02-15T19:02:17.217Z,3.70
2023-02-15T19:04:54.114Z,3.70
2023-02-15T19:07:30.075Z,3.60
2023-02-15T19:10:04.471Z,3.60
2023-02-15T19:12:38.380Z,3.50
2023-02-15T19:15:17.801Z,3.50
2023-02-15T19:17:52.600Z,3.50
2023-02-15T19:20:33.028Z,3.40
2023-02-15T19:23:07.919Z,3.40
2023-02-15T19:25:42.843Z,3.40
2023-02-15T19:28:20.654Z,3.40
2023-02-15T19:30:59.417Z,3.30
2023-02-15T19:33:35.054Z,3.40
2023-02-15T19:36:15.402Z,3.30
2023-02-15T19:38:51.283Z,3.30
2023-02-15T19:41:29.785Z,3.20
2023-02-15T19:44:04.538Z,3.20
2023-02-15T19:46:44.877Z,3.10
2023-02-15T19:49:20.174Z,3.10
2023-02-15T19:51:57.366Z,3.00
2023-02-15T19:54:36.417Z,3.00
2023-02-15T19:57:14.644Z,2.90
2023-02-15T19:59:54.122Z,2.80
2023-02-15T20:02:31.819Z,2.80
2023-02-15T20:05:08.683Z,2.80
2023-02-15T20:07:47.685Z,2.70
2023-02-15T20:10:28.414Z,2.70
2023-02-15T20:13:02.700Z,2.70
2023-02-15T20:15:40.100Z,2.60
2023-02-15T20:18:22.689Z,2.70
2023-02-15T20:20:58.717Z,2.50
2023-02-15T20:23:50.822Z,2.50
2023-02-15T20:26:34.540Z,2.50
2023-02-15T20:29:19.724Z,2.40
2023-02-15T20:32:06.092Z,2.40
2023-02-15T20:34:45.854Z,2.40
2023-02-15T20:37:29.528Z,2.40
2023-02-15T20:40:12.280Z,2.30
2023-02-15T20:42:59.237Z,2.30
2023-02-15T20:45:37.599Z,2.30
2023-02-15T20:48:20.117Z,2.30
2023-02-15T20:51:05.306Z,2.20
2023-02-15T20:53:40.114Z,2.20
2023-02-15T20:56:17.350Z,2.20
2023-02-15T20:58:56.115Z,2.10
2023-02-15T21:01:35.419Z,2.10
2023-02-15T21:04:16.059Z,2.10
2023-02-15T21:06:53.306Z,2.10
2023-02-15T21:09:28.048Z,2.00
2023-02-15T21:12:04.002Z,1.90
2023-02-15T21:14:41.391Z,1.90
2023-02-15T21:17:16.879Z,1.80
2023-02-15T21:19:52.037Z,1.80
2023-02-15T21:22:27.218Z,1.70
2023-02-15T21:25:04.051Z,1.70
2023-02-15T21:27:39.194Z,1.70
2023-02-15T21:30:22.183Z,1.60
2023-02-15T21:32:57.031Z,1.60
2023-02-15T21:35:28.069Z,1.60
2023-02-15T21:38:03.540Z,1.60
2023-02-15T21:40:39.491Z,1.50
2023-02-15T21:43:30.805Z,1.50
2023-02-15T21:46:30.933Z,1.40
2023-02-15T21:49:07.755Z,1.40
2023-02-15T21:51:55.186Z,1.30
2023-02-15T21:54:31.782Z,1.40
2023-02-15T21:57:07.578Z,1.30
2023-02-15T21:59:43.223Z,1.20
2023-02-15T22:02:33.744Z,1.20
2023-02-15T22:05:12.648Z,1.20
2023-02-15T22:07:47.488Z,1.20
2023-02-15T22:10:22.991Z,1.20
2023-02-15T22:13:00.617Z,1.10
2023-02-15T22:15:34.530Z,1.20
2023-02-15T22:18:17.335Z,1.20
2023-02-15T22:20:52.046Z,1.10
2023-02-15T22:23:27.156Z,1.10
2023-02-15T22:26:02.383Z,1.10
2023-02-15T22:28:37.582Z,1.10
2023-02-15T22:31:15.609Z,0.90
2023-02-15T22:33:55.683Z,1.00
2023-02-15T22:36:31.798Z,1.00
2023-02-15T22:39:06.612Z,0.90
2023-02-15T22:41:41.685Z,0.90
2023-02-15T22:44:16.632Z,0.90
2023-02-15T22:46:51.935Z,0.80
2023-02-15T22:49:29.119Z,0.80
2023-02-15T22:52:03.604Z,0.80
2023-02-15T22:54:38.440Z,0.70
2023-02-15T22:57:12.764Z,0.70
2023-02-15T22:59:45.466Z,0.70
2023-02-15T23:02:19.618Z,0.60
2023-02-15T23:04:57.123Z,0.60
2023-02-15T23:07:31.664Z,0.60
2023-02-15T23:10:03.727Z,0.60
2023-02-15T23:13:03.377Z,0.60
2023-02-15T23:15:37.771Z,0.50
2023-02-15T23:18:20.264Z,0.50
2023-02-15T23:20:58.240Z,0.50
2023-02-15T23:23:35.898Z,0.50
2023-02-15T23:26:15.518Z,0.50
2023-02-15T23:28:49.777Z,0.40
2023-02-15T23:31:25.534Z,0.40
2023-02-15T23:34:00.382Z,0.40
2023-02-15T23:36:37.915Z,0.40
2023-02-15T23:39:28.197Z,0.40
2023-02-15T23:42:02.658Z,0.40
2023-02-15T23:44:37.352Z,0.40
2023-02-15T23:47:17.962Z,0.30
2023-02-15T23:49:54.747Z,0.40
2023-02-15T23:52:32.069Z,0.30
2023-02-15T23:55:06.409Z,0.30
2023-02-15T23:57:40.621Z,0.30
